sensor_id;sensor_type;location;lat;lon;timestamp;P1;durP1;ratioP1;P2;durP2;ratioP2
11685;SDS011;5899;51.282;6.094;2023-02-18T00:02:04;10.40;;;8.97;;
11685;SDS011;5899;51.282;6.094;2023-02-18T00:04:32;9.27;;;8.25;;
11685;SDS011;5899;51.282;6.094;2023-02-18T00:06:58;9.63;;;8.57;;
11685;SDS011;5899;51.282;6.094;2023-02-18T00:09:25;10.60;;;8.18;;
11685;SDS011;5899;51.282;6.094;2023-02-18T00:11:53;12.20;;;8.88;;
11685;SDS011;5899;51.282;6.094;2023-02-18T00:14:20;10.27;;;8.85;;
11685;SDS011;5899;51.282;6.094;2023-02-18T00:16:46;9.32;;;7.50;;
11685;SDS011;5899;51.282;6.094;2023-02-18T00:19:13;10.32;;;8.75;;
11685;SDS011;5899;51.282;6.094;2023-02-18T00:21:41;9.93;;;8.25;;
11685;SDS011;5899;51.282;6.094;2023-02-18T00:24:12;12.23;;;8.02;;
11685;SDS011;5899;51.282;6.094;2023-02-18T00:26:39;10.68;;;8.07;;
11685;SDS011;5899;51.282;6.094;2023-02-18T00:29:06;9.25;;;8.27;;
11685;SDS011;5899;51.282;6.094;2023-02-18T00:31:33;9.63;;;8.25;;
11685;SDS011;5899;51.282;6.094;2023-02-18T00:34:00;9.60;;;7.75;;
11685;SDS011;5899;51.282;6.094;2023-02-18T00:36:27;9.02;;;8.13;;
11685;SDS011;5899;51.282;6.094;2023-02-18T00:38:57;9.03;;;7.70;;
11685;SDS011;5899;51.282;6.094;2023-02-18T00:41:24;8.77;;;7.88;;
11685;SDS011;5899;51.282;6.094;2023-02-18T00:43:51;8.75;;;7.57;;
11685;SDS011;5899;51.282;6.094;2023-02-18T00:46:18;8.77;;;7.75;;
11685;SDS011;5899;51.282;6.094;2023-02-18T00:48:46;9.45;;;7.78;;
11685;SDS011;5899;51.282;6.094;2023-02-18T00:51:13;9.93;;;7.43;;
11685;SDS011;5899;51.282;6.094;2023-02-18T00:53:41;9.80;;;7.57;;
11685;SDS011;5899;51.282;6.094;2023-02-18T00:56:11;8.35;;;7.45;;
11685;SDS011;5899;51.282;6.094;2023-02-18T00:58:38;9.85;;;7.63;;
11685;SDS011;5899;51.282;6.094;2023-02-18T01:01:05;9.35;;;7.43;;
11685;SDS011;5899;51.282;6.094;2023-02-18T01:03:31;9.07;;;7.43;;
11685;SDS011;5899;51.282;6.094;2023-02-18T01:05:58;9.77;;;7.13;;
11685;SDS011;5899;51.282;6.094;2023-02-18T01:08:27;8.83;;;7.60;;
11685;SDS011;5899;51.282;6.094;2023-02-18T01:10:54;9.52;;;7.80;;
11685;SDS011;5899;51.282;6.094;2023-02-18T01:13:22;8.27;;;7.18;;
11685;SDS011;5899;51.282;6.094;2023-02-18T01:15:50;10.15;;;7.40;;
11685;SDS011;5899;51.282;6.094;2023-02-18T01:18:17;9.40;;;7.78;;
11685;SDS011;5899;51.282;6.094;2023-02-18T01:20:44;8.57;;;7.65;;
11685;SDS011;5899;51.282;6.094;2023-02-18T01:23:11;8.45;;;7.25;;
11685;SDS011;5899;51.282;6.094;2023-02-18T01:25:40;9.63;;;7.47;;
11685;SDS011;5899;51.282;6.094;2023-02-18T01:28:06;8.77;;;7.40;;
11685;SDS011;5899;51.282;6.094;2023-02-18T01:30:34;8.82;;;7.40;;
11685;SDS011;5899;51.282;6.094;2023-02-18T01:33:01;11.17;;;8.10;;
11685;SDS011;5899;51.282;6.094;2023-02-18T01:35:27;8.20;;;7.32;;
11685;SDS011;5899;51.282;6.094;2023-02-18T01:37:54;9.77;;;7.57;;
11685;SDS011;5899;51.282;6.094;2023-02-18T01:40:21;7.90;;;7.05;;
11685;SDS011;5899;51.282;6.094;2023-02-18T01:42:48;8.50;;;7.07;;
11685;SDS011;5899;51.282;6.094;2023-02-18T01:48:02;8.85;;;7.13;;
11685;SDS011;5899;51.282;6.094;2023-02-18T01:50:31;8.38;;;7.10;;
11685;SDS011;5899;51.282;6.094;2023-02-18T01:52:59;8.10;;;7.05;;
11685;SDS011;5899;51.282;6.094;2023-02-18T01:55:26;9.30;;;7.40;;
11685;SDS011;5899;51.282;6.094;2023-02-18T01:57:52;7.57;;;6.78;;
11685;SDS011;5899;51.282;6.094;2023-02-18T02:00:19;8.60;;;7.18;;
11685;SDS011;5899;51.282;6.094;2023-02-18T02:02:47;8.47;;;6.80;;
11685;SDS011;5899;51.282;6.094;2023-02-18T02:05:15;8.95;;;6.70;;
11685;SDS011;5899;51.282;6.094;2023-02-18T02:07:42;8.63;;;6.77;;
11685;SDS011;5899;51.282;6.094;2023-02-18T02:10:10;7.53;;;6.53;;
11685;SDS011;5899;51.282;6.094;2023-02-18T02:12:42;8.27;;;6.73;;
11685;SDS011;5899;51.282;6.094;2023-02-18T02:15:19;8.13;;;6.95;;
11685;SDS011;5899;51.282;6.094;2023-02-18T02:17:51;8.98;;;7.00;;
11685;SDS011;5899;51.282;6.094;2023-02-18T02:20:30;11.05;;;7.82;;
11685;SDS011;5899;51.282;6.094;2023-02-18T02:25:59;8.00;;;6.97;;
11685;SDS011;5899;51.282;6.094;2023-02-18T02:31:26;9.18;;;7.68;;
11685;SDS011;5899;51.282;6.094;2023-02-18T02:34:15;11.88;;;7.82;;
11685;SDS011;5899;51.282;6.094;2023-02-18T02:36:44;9.25;;;7.70;;
11685;SDS011;5899;51.282;6.094;2023-02-18T02:39:16;9.45;;;7.60;;
11685;SDS011;5899;51.282;6.094;2023-02-18T02:41:45;9.10;;;7.45;;
11685;SDS011;5899;51.282;6.094;2023-02-18T02:44:18;9.15;;;7.78;;
11685;SDS011;5899;51.282;6.094;2023-02-18T02:46:46;8.30;;;7.32;;
11685;SDS011;5899;51.282;6.094;2023-02-18T02:49:17;9.20;;;7.45;;
11685;SDS011;5899;51.282;6.094;2023-02-18T02:51:51;9.27;;;7.53;;
11685;SDS011;5899;51.282;6.094;2023-02-18T02:54:23;9.43;;;7.50;;
11685;SDS011;5899;51.282;6.094;2023-02-18T02:57:02;9.73;;;7.85;;
11685;SDS011;5899;51.282;6.094;2023-02-18T02:59:34;8.80;;;7.27;;
11685;SDS011;5899;51.282;6.094;2023-02-18T03:02:07;8.40;;;7.03;;
11685;SDS011;5899;51.282;6.094;2023-02-18T03:10:35;7.90;;;6.55;;
11685;SDS011;5899;51.282;6.094;2023-02-18T03:13:11;8.55;;;6.93;;
11685;SDS011;5899;51.282;6.094;2023-02-18T03:15:46;7.95;;;6.35;;
11685;SDS011;5899;51.282;6.094;2023-02-18T03:18:16;6.32;;;5.45;;
11685;SDS011;5899;51.282;6.094;2023-02-18T03:20:48;5.75;;;5.00;;
11685;SDS011;5899;51.282;6.094;2023-02-18T03:23:16;6.53;;;5.27;;
11685;SDS011;5899;51.282;6.094;2023-02-18T03:25:47;5.43;;;4.83;;
11685;SDS011;5899;51.282;6.094;2023-02-18T03:28:16;6.30;;;4.93;;
11685;SDS011;5899;51.282;6.094;2023-02-18T03:30:50;5.78;;;4.50;;
11685;SDS011;5899;51.282;6.094;2023-02-18T03:33:19;5.03;;;4.05;;
11685;SDS011;5899;51.282;6.094;2023-02-18T03:35:48;5.70;;;4.10;;
11685;SDS011;5899;51.282;6.094;2023-02-18T03:38:19;4.45;;;3.70;;
11685;SDS011;5899;51.282;6.094;2023-02-18T03:40:52;4.60;;;4.07;;
11685;SDS011;5899;51.282;6.094;2023-02-18T03:43:18;3.92;;;3.05;;
11685;SDS011;5899;51.282;6.094;2023-02-18T03:45:47;3.50;;;2.88;;
11685;SDS011;5899;51.282;6.094;2023-02-18T03:48:14;3.58;;;2.95;;
11685;SDS011;5899;51.282;6.094;2023-02-18T03:50:43;2.67;;;2.47;;
11685;SDS011;5899;51.282;6.094;2023-02-18T03:53:19;2.43;;;2.20;;
11685;SDS011;5899;51.282;6.094;2023-02-18T03:55:50;2.47;;;2.27;;
11685;SDS011;5899;51.282;6.094;2023-02-18T03:58:19;2.40;;;2.15;;
11685;SDS011;5899;51.282;6.094;2023-02-18T04:00:46;3.60;;;2.27;;
11685;SDS011;5899;51.282;6.094;2023-02-18T04:03:15;2.53;;;2.08;;
11685;SDS011;5899;51.282;6.094;2023-02-18T04:05:41;2.70;;;2.13;;
11685;SDS011;5899;51.282;6.094;2023-02-18T04:08:08;2.00;;;1.70;;
11685;SDS011;5899;51.282;6.094;2023-02-18T04:10:34;2.45;;;1.83;;
11685;SDS011;5899;51.282;6.094;2023-02-18T04:13:01;2.47;;;2.20;;
11685;SDS011;5899;51.282;6.094;2023-02-18T04:15:29;2.20;;;2.00;;
11685;SDS011;5899;51.282;6.094;2023-02-18T04:17:56;2.10;;;1.90;;
11685;SDS011;5899;51.282;6.094;2023-02-18T04:20:22;2.47;;;1.90;;
11685;SDS011;5899;51.282;6.094;2023-02-18T04:23:10;2.83;;;2.28;;
11685;SDS011;5899;51.282;6.094;2023-02-18T04:25:41;2.65;;;2.05;;
11685;SDS011;5899;51.282;6.094;2023-02-18T04:28:12;3.20;;;2.17;;
11685;SDS011;5899;51.282;6.094;2023-02-18T04:30:43;3.00;;;2.40;;
11685;SDS011;5899;51.282;6.094;2023-02-18T04:33:12;7.40;;;2.38;;
11685;SDS011;5899;51.282;6.094;2023-02-18T04:35:39;7.32;;;2.50;;
11685;SDS011;5899;51.282;6.094;2023-02-18T04:38:10;3.40;;;1.80;;
11685;SDS011;5899;51.282;6.094;2023-02-18T04:40:39;2.25;;;2.03;;
11685;SDS011;5899;51.282;6.094;2023-02-18T04:43:09;2.22;;;1.95;;
11685;SDS011;5899;51.282;6.094;2023-02-18T04:45:37;2.35;;;1.80;;
11685;SDS011;5899;51.282;6.094;2023-02-18T04:48:10;1.77;;;1.67;;
11685;SDS011;5899;51.282;6.094;2023-02-18T04:50:42;3.40;;;1.90;;
11685;SDS011;5899;51.282;6.094;2023-02-18T04:53:10;2.67;;;2.30;;
11685;SDS011;5899;51.282;6.094;2023-02-18T04:55:37;1.92;;;1.73;;
11685;SDS011;5899;51.282;6.094;2023-02-18T04:58:06;2.35;;;1.98;;
11685;SDS011;5899;51.282;6.094;2023-02-18T05:00:42;2.28;;;1.90;;
11685;SDS011;5899;51.282;6.094;2023-02-18T05:03:12;2.03;;;1.75;;
11685;SDS011;5899;51.282;6.094;2023-02-18T05:05:40;2.00;;;1.80;;
11685;SDS011;5899;51.282;6.094;2023-02-18T05:08:21;2.35;;;2.00;;
11685;SDS011;5899;51.282;6.094;2023-02-18T05:10:50;2.22;;;2.00;;
11685;SDS011;5899;51.282;6.094;2023-02-18T05:13:35;1.95;;;1.75;;
11685;SDS011;5899;51.282;6.094;2023-02-18T05:16:02;3.75;;;2.10;;
11685;SDS011;5899;51.282;6.094;2023-02-18T05:21:21;2.72;;;2.35;;
11685;SDS011;5899;51.282;6.094;2023-02-18T05:24:01;2.53;;;2.08;;
11685;SDS011;5899;51.282;6.094;2023-02-18T05:26:27;2.58;;;2.03;;
11685;SDS011;5899;51.282;6.094;2023-02-18T05:28:56;2.20;;;2.00;;
11685;SDS011;5899;51.282;6.094;2023-02-18T05:31:22;2.70;;;1.95;;
11685;SDS011;5899;51.282;6.094;2023-02-18T05:33:49;2.70;;;2.10;;
11685;SDS011;5899;51.282;6.094;2023-02-18T05:36:15;2.33;;;2.13;;
11685;SDS011;5899;51.282;6.094;2023-02-18T05:38:44;2.55;;;1.77;;
11685;SDS011;5899;51.282;6.094;2023-02-18T05:41:10;2.45;;;1.95;;
11685;SDS011;5899;51.282;6.094;2023-02-18T05:43:37;2.38;;;2.13;;
11685;SDS011;5899;51.282;6.094;2023-02-18T05:46:17;2.10;;;1.90;;
11685;SDS011;5899;51.282;6.094;2023-02-18T05:48:44;3.22;;;2.63;;
11685;SDS011;5899;51.282;6.094;2023-02-18T05:51:10;2.35;;;2.05;;
11685;SDS011;5899;51.282;6.094;2023-02-18T05:53:39;3.30;;;2.20;;
11685;SDS011;5899;51.282;6.094;2023-02-18T05:56:08;3.40;;;2.40;;
11685;SDS011;5899;51.282;6.094;2023-02-18T05:58:35;3.10;;;2.80;;
11685;SDS011;5899;51.282;6.094;2023-02-18T06:01:02;2.72;;;2.47;;
11685;SDS011;5899;51.282;6.094;2023-02-18T06:03:28;4.18;;;2.83;;
11685;SDS011;5899;51.282;6.094;2023-02-18T06:06:03;5.25;;;3.38;;
11685;SDS011;5899;51.282;6.094;2023-02-18T06:08:32;4.63;;;2.90;;
11685;SDS011;5899;51.282;6.094;2023-02-18T06:10:59;13.77;;;3.88;;
11685;SDS011;5899;51.282;6.094;2023-02-18T06:13:31;4.82;;;3.15;;
11685;SDS011;5899;51.282;6.094;2023-02-18T06:15:59;3.22;;;2.80;;
11685;SDS011;5899;51.282;6.094;2023-02-18T06:18:25;2.97;;;2.53;;
11685;SDS011;5899;51.282;6.094;2023-02-18T06:20:52;3.80;;;2.72;;
11685;SDS011;5899;51.282;6.094;2023-02-18T06:23:18;3.63;;;2.70;;
11685;SDS011;5899;51.282;6.094;2023-02-18T06:25:47;4.00;;;2.90;;
11685;SDS011;5899;51.282;6.094;2023-02-18T06:28:14;2.90;;;2.58;;
11685;SDS011;5899;51.282;6.094;2023-02-18T06:30:42;2.88;;;2.55;;
11685;SDS011;5899;51.282;6.094;2023-02-18T06:33:12;2.35;;;2.15;;
11685;SDS011;5899;51.282;6.094;2023-02-18T06:35:38;3.15;;;2.47;;
11685;SDS011;5899;51.282;6.094;2023-02-18T06:38:05;3.30;;;2.30;;
11685;SDS011;5899;51.282;6.094;2023-02-18T06:40:33;2.60;;;2.10;;
11685;SDS011;5899;51.282;6.094;2023-02-18T06:43:05;3.08;;;2.30;;
11685;SDS011;5899;51.282;6.094;2023-02-18T06:45:32;3.20;;;2.20;;
11685;SDS011;5899;51.282;6.094;2023-02-18T06:48:10;2.50;;;2.10;;
11685;SDS011;5899;51.282;6.094;2023-02-18T06:50:39;2.38;;;1.73;;
11685;SDS011;5899;51.282;6.094;2023-02-18T06:53:06;3.50;;;2.13;;
11685;SDS011;5899;51.282;6.094;2023-02-18T06:55:34;2.27;;;2.03;;
11685;SDS011;5899;51.282;6.094;2023-02-18T06:58:04;2.00;;;1.80;;
11685;SDS011;5899;51.282;6.094;2023-02-18T07:00:31;2.10;;;1.90;;
11685;SDS011;5899;51.282;6.094;2023-02-18T07:02:57;2.43;;;2.23;;
11685;SDS011;5899;51.282;6.094;2023-02-18T07:05:25;2.70;;;1.90;;
11685;SDS011;5899;51.282;6.094;2023-02-18T07:07:54;2.03;;;1.83;;
11685;SDS011;5899;51.282;6.094;2023-02-18T07:10:20;2.10;;;1.90;;
11685;SDS011;5899;51.282;6.094;2023-02-18T07:12:47;1.80;;;1.70;;
11685;SDS011;5899;51.282;6.094;2023-02-18T07:15:21;2.20;;;1.75;;
11685;SDS011;5899;51.282;6.094;2023-02-18T07:17:48;1.95;;;1.75;;
11685;SDS011;5899;51.282;6.094;2023-02-18T07:20:15;2.15;;;1.95;;
11685;SDS011;5899;51.282;6.094;2023-02-18T07:22:49;1.55;;;1.45;;
11685;SDS011;5899;51.282;6.094;2023-02-18T07:25:18;2.70;;;1.97;;
11685;SDS011;5899;51.282;6.094;2023-02-18T07:27:44;1.67;;;1.58;;
11685;SDS011;5899;51.282;6.094;2023-02-18T07:30:11;2.13;;;1.83;;
11685;SDS011;5899;51.282;6.094;2023-02-18T07:32:40;2.03;;;1.83;;
11685;SDS011;5899;51.282;6.094;2023-02-18T07:35:06;2.40;;;2.00;;
11685;SDS011;5899;51.282;6.094;2023-02-18T07:37:33;2.92;;;2.13;;
11685;SDS011;5899;51.282;6.094;2023-02-18T07:40:01;3.60;;;2.40;;
11685;SDS011;5899;51.282;6.094;2023-02-18T07:42:28;3.50;;;2.53;;
11685;SDS011;5899;51.282;6.094;2023-02-18T07:44:54;2.70;;;2.00;;
11685;SDS011;5899;51.282;6.094;2023-02-18T07:47:21;5.28;;;2.42;;
11685;SDS011;5899;51.282;6.094;2023-02-18T07:49:47;4.05;;;2.38;;
11685;SDS011;5899;51.282;6.094;2023-02-18T07:52:14;4.50;;;2.60;;
11685;SDS011;5899;51.282;6.094;2023-02-18T07:54:41;4.28;;;2.67;;
11685;SDS011;5899;51.282;6.094;2023-02-18T07:57:10;3.83;;;2.85;;
11685;SDS011;5899;51.282;6.094;2023-02-18T07:59:36;3.65;;;2.80;;
11685;SDS011;5899;51.282;6.094;2023-02-18T08:02:03;4.20;;;2.92;;
11685;SDS011;5899;51.282;6.094;2023-02-18T08:04:31;4.73;;;2.90;;
11685;SDS011;5899;51.282;6.094;2023-02-18T08:06:58;7.68;;;2.90;;
11685;SDS011;5899;51.282;6.094;2023-02-18T08:09:25;6.65;;;3.15;;
11685;SDS011;5899;51.282;6.094;2023-02-18T08:11:53;6.85;;;3.38;;
11685;SDS011;5899;51.282;6.094;2023-02-18T08:14:21;5.27;;;3.23;;
11685;SDS011;5899;51.282;6.094;2023-02-18T08:16:49;5.15;;;2.90;;
11685;SDS011;5899;51.282;6.094;2023-02-18T08:19:16;6.87;;;2.97;;
11685;SDS011;5899;51.282;6.094;2023-02-18T08:21:42;7.18;;;2.70;;
11685;SDS011;5899;51.282;6.094;2023-02-18T08:24:11;5.15;;;2.88;;
11685;SDS011;5899;51.282;6.094;2023-02-18T08:26:38;6.43;;;2.83;;
11685;SDS011;5899;51.282;6.094;2023-02-18T08:29:07;6.47;;;2.58;;
11685;SDS011;5899;51.282;6.094;2023-02-18T08:31:35;4.88;;;2.83;;
11685;SDS011;5899;51.282;6.094;2023-02-18T08:34:03;4.05;;;2.55;;
11685;SDS011;5899;51.282;6.094;2023-02-18T08:36:29;6.35;;;2.65;;
11685;SDS011;5899;51.282;6.094;2023-02-18T08:39:01;7.55;;;2.90;;
11685;SDS011;5899;51.282;6.094;2023-02-18T08:41:28;7.68;;;2.63;;
11685;SDS011;5899;51.282;6.094;2023-02-18T08:43:57;6.45;;;2.20;;
11685;SDS011;5899;51.282;6.094;2023-02-18T08:46:24;3.25;;;1.95;;
11685;SDS011;5899;51.282;6.094;2023-02-18T08:48:52;4.75;;;2.90;;
11685;SDS011;5899;51.282;6.094;2023-02-18T08:51:19;5.65;;;2.33;;
11685;SDS011;5899;51.282;6.094;2023-02-18T08:53:47;5.95;;;2.42;;
11685;SDS011;5899;51.282;6.094;2023-02-18T08:56:14;3.93;;;2.47;;
11685;SDS011;5899;51.282;6.094;2023-02-18T08:58:41;10.40;;;2.50;;
11685;SDS011;5899;51.282;6.094;2023-02-18T09:01:08;7.18;;;2.60;;
11685;SDS011;5899;51.282;6.094;2023-02-18T09:03:35;6.43;;;2.45;;
11685;SDS011;5899;51.282;6.094;2023-02-18T09:06:08;6.20;;;2.42;;
11685;SDS011;5899;51.282;6.094;2023-02-18T09:08:34;6.60;;;2.28;;
11685;SDS011;5899;51.282;6.094;2023-02-18T09:11:01;6.90;;;2.60;;
11685;SDS011;5899;51.282;6.094;2023-02-18T09:13:29;5.32;;;2.10;;
11685;SDS011;5899;51.282;6.094;2023-02-18T09:15:57;7.15;;;2.33;;
11685;SDS011;5899;51.282;6.094;2023-02-18T09:18:23;6.65;;;2.20;;
11685;SDS011;5899;51.282;6.094;2023-02-18T09:20:50;6.03;;;2.45;;
11685;SDS011;5899;51.282;6.094;2023-02-18T09:23:19;5.80;;;2.47;;
11685;SDS011;5899;51.282;6.094;2023-02-18T09:25:45;5.75;;;2.17;;
11685;SDS011;5899;51.282;6.094;2023-02-18T09:28:12;10.15;;;2.58;;
11685;SDS011;5899;51.282;6.094;2023-02-18T09:30:39;5.43;;;1.92;;
11685;SDS011;5899;51.282;6.094;2023-02-18T09:33:06;5.75;;;2.40;;
11685;SDS011;5899;51.282;6.094;2023-02-18T09:35:32;5.32;;;2.08;;
11685;SDS011;5899;51.282;6.094;2023-02-18T09:37:59;5.35;;;2.65;;
11685;SDS011;5899;51.282;6.094;2023-02-18T09:40:30;5.80;;;2.58;;
11685;SDS011;5899;51.282;6.094;2023-02-18T09:43:01;5.63;;;2.40;;
11685;SDS011;5899;51.282;6.094;2023-02-18T09:45:30;7.93;;;2.28;;
11685;SDS011;5899;51.282;6.094;2023-02-18T09:47:59;6.00;;;2.33;;
11685;SDS011;5899;51.282;6.094;2023-02-18T09:50:34;6.60;;;2.70;;
11685;SDS011;5899;51.282;6.094;2023-02-18T09:53:01;7.43;;;2.30;;
11685;SDS011;5899;51.282;6.094;2023-02-18T09:55:34;6.78;;;2.28;;
11685;SDS011;5899;51.282;6.094;2023-02-18T09:58:03;10.10;;;2.45;;
11685;SDS011;5899;51.282;6.094;2023-02-18T10:00:31;5.10;;;2.25;;
11685;SDS011;5899;51.282;6.094;2023-02-18T10:03:00;6.45;;;2.58;;
11685;SDS011;5899;51.282;6.094;2023-02-18T10:05:28;3.58;;;2.00;;
11685;SDS011;5899;51.282;6.094;2023-02-18T10:07:57;5.10;;;2.33;;
11685;SDS011;5899;51.282;6.094;2023-02-18T10:10:33;7.38;;;2.10;;
11685;SDS011;5899;51.282;6.094;2023-02-18T10:13:05;3.92;;;2.20;;
11685;SDS011;5899;51.282;6.094;2023-02-18T10:18:51;9.63;;;3.50;;
11685;SDS011;5899;51.282;6.094;2023-02-18T10:21:23;6.82;;;2.75;;
11685;SDS011;5899;51.282;6.094;2023-02-18T10:23:57;5.60;;;2.60;;
11685;SDS011;5899;51.282;6.094;2023-02-18T10:26:36;4.78;;;2.92;;
11685;SDS011;5899;51.282;6.094;2023-02-18T10:29:04;5.03;;;2.30;;
11685;SDS011;5899;51.282;6.094;2023-02-18T10:31:40;7.03;;;2.50;;
11685;SDS011;5899;51.282;6.094;2023-02-18T10:34:12;5.22;;;2.45;;
11685;SDS011;5899;51.282;6.094;2023-02-18T10:36:43;7.90;;;2.75;;
11685;SDS011;5899;51.282;6.094;2023-02-18T10:39:22;6.68;;;2.45;;
11685;SDS011;5899;51.282;6.094;2023-02-18T10:41:56;5.60;;;2.42;;
11685;SDS011;5899;51.282;6.094;2023-02-18T10:44:28;5.38;;;2.40;;
11685;SDS011;5899;51.282;6.094;2023-02-18T10:46:59;5.55;;;2.25;;
11685;SDS011;5899;51.282;6.094;2023-02-18T10:49:47;10.63;;;2.42;;
11685;SDS011;5899;51.282;6.094;2023-02-18T10:52:18;5.13;;;2.40;;
11685;SDS011;5899;51.282;6.094;2023-02-18T10:54:49;6.43;;;2.28;;
11685;SDS011;5899;51.282;6.094;2023-02-18T10:57:18;7.55;;;2.70;;
11685;SDS011;5899;51.282;6.094;2023-02-18T10:59:57;7.43;;;2.60;;
11685;SDS011;5899;51.282;6.094;2023-02-18T11:02:25;4.77;;;2.57;;
11685;SDS011;5899;51.282;6.094;2023-02-18T11:04:54;4.40;;;2.40;;
11685;SDS011;5899;51.282;6.094;2023-02-18T11:07:23;5.25;;;2.25;;
11685;SDS011;5899;51.282;6.094;2023-02-18T11:09:51;7.90;;;2.70;;
11685;SDS011;5899;51.282;6.094;2023-02-18T11:12:21;7.00;;;2.53;;
11685;SDS011;5899;51.282;6.094;2023-02-18T11:15:02;7.20;;;2.92;;
11685;SDS011;5899;51.282;6.094;2023-02-18T11:17:30;6.13;;;2.58;;
11685;SDS011;5899;51.282;6.094;2023-02-18T11:19:57;8.68;;;2.90;;
11685;SDS011;5899;51.282;6.094;2023-02-18T11:22:27;6.05;;;2.45;;
11685;SDS011;5899;51.282;6.094;2023-02-18T11:24:55;7.82;;;2.90;;
11685;SDS011;5899;51.282;6.094;2023-02-18T11:27:24;6.50;;;2.65;;
11685;SDS011;5899;51.282;6.094;2023-02-18T11:29:51;4.65;;;2.72;;
11685;SDS011;5899;51.282;6.094;2023-02-18T11:32:24;6.30;;;2.90;;
11685;SDS011;5899;51.282;6.094;2023-02-18T11:34:52;9.10;;;3.03;;
11685;SDS011;5899;51.282;6.094;2023-02-18T11:37:20;5.67;;;2.80;;
11685;SDS011;5899;51.282;6.094;2023-02-18T11:39:48;7.82;;;2.92;;
11685;SDS011;5899;51.282;6.094;2023-02-18T11:42:17;6.40;;;2.95;;
11685;SDS011;5899;51.282;6.094;2023-02-18T11:44:49;7.43;;;2.75;;
11685;SDS011;5899;51.282;6.094;2023-02-18T11:47:19;7.15;;;2.90;;
11685;SDS011;5899;51.282;6.094;2023-02-18T11:49:59;6.05;;;2.78;;
11685;SDS011;5899;51.282;6.094;2023-02-18T11:52:27;8.25;;;3.30;;
11685;SDS011;5899;51.282;6.094;2023-02-18T11:54:59;5.22;;;2.85;;
11685;SDS011;5899;51.282;6.094;2023-02-18T11:57:32;5.70;;;3.20;;
11685;SDS011;5899;51.282;6.094;2023-02-18T12:00:00;5.07;;;2.88;;
11685;SDS011;5899;51.282;6.094;2023-02-18T12:02:31;5.80;;;3.08;;
11685;SDS011;5899;51.282;6.094;2023-02-18T12:05:11;4.93;;;2.87;;
11685;SDS011;5899;51.282;6.094;2023-02-18T12:07:43;7.07;;;3.30;;
11685;SDS011;5899;51.282;6.094;2023-02-18T12:10:10;7.03;;;3.90;;
11685;SDS011;5899;51.282;6.094;2023-02-18T12:12:41;6.80;;;3.40;;
11685;SDS011;5899;51.282;6.094;2023-02-18T12:15:14;8.23;;;3.63;;
11685;SDS011;5899;51.282;6.094;2023-02-18T12:17:49;5.47;;;3.23;;
11685;SDS011;5899;51.282;6.094;2023-02-18T12:20:31;7.90;;;3.92;;
11685;SDS011;5899;51.282;6.094;2023-02-18T12:23:12;6.03;;;3.60;;
11685;SDS011;5899;51.282;6.094;2023-02-18T12:25:46;5.33;;;3.70;;
11685;SDS011;5899;51.282;6.094;2023-02-18T12:28:25;5.40;;;3.55;;
11685;SDS011;5899;51.282;6.094;2023-02-18T12:31:04;5.63;;;3.80;;
11685;SDS011;5899;51.282;6.094;2023-02-18T12:33:34;8.00;;;3.97;;
11685;SDS011;5899;51.282;6.094;2023-02-18T12:36:09;10.65;;;4.40;;
11685;SDS011;5899;51.282;6.094;2023-02-18T12:38:52;8.25;;;4.20;;
11685;SDS011;5899;51.282;6.094;2023-02-18T12:41:32;9.65;;;3.95;;
11685;SDS011;5899;51.282;6.094;2023-02-18T12:44:16;7.32;;;4.35;;
11685;SDS011;5899;51.282;6.094;2023-02-18T12:49:43;7.90;;;4.07;;
11685;SDS011;5899;51.282;6.094;2023-02-18T12:52:17;6.90;;;4.28;;
11685;SDS011;5899;51.282;6.094;2023-02-18T12:55:00;8.50;;;4.50;;
11685;SDS011;5899;51.282;6.094;2023-02-18T12:57:38;7.28;;;4.93;;
11685;SDS011;5899;51.282;6.094;2023-02-18T13:00:17;6.33;;;5.10;;
11685;SDS011;5899;51.282;6.094;2023-02-18T13:05:37;9.23;;;4.70;;
11685;SDS011;5899;51.282;6.094;2023-02-18T13:08:17;8.05;;;4.60;;
11685;SDS011;5899;51.282;6.094;2023-02-18T13:10:55;6.33;;;4.43;;
11685;SDS011;5899;51.282;6.094;2023-02-18T13:13:29;8.95;;;4.95;;
11685;SDS011;5899;51.282;6.094;2023-02-18T13:16:07;9.02;;;4.90;;
11685;SDS011;5899;51.282;6.094;2023-02-18T13:18:37;6.47;;;4.70;;
11685;SDS011;5899;51.282;6.094;2023-02-18T13:21:08;9.25;;;4.50;;
11685;SDS011;5899;51.282;6.094;2023-02-18T13:23:41;5.67;;;4.43;;
11685;SDS011;5899;51.282;6.094;2023-02-18T13:26:08;7.80;;;4.43;;
11685;SDS011;5899;51.282;6.094;2023-02-18T13:28:41;9.43;;;5.05;;
11685;SDS011;5899;51.282;6.094;2023-02-18T13:31:13;7.25;;;4.72;;
11685;SDS011;5899;51.282;6.094;2023-02-18T13:33:43;6.78;;;4.13;;
11685;SDS011;5899;51.282;6.094;2023-02-18T13:36:15;8.68;;;4.30;;
11685;SDS011;5899;51.282;6.094;2023-02-18T13:38:55;8.65;;;5.03;;
11685;SDS011;5899;51.282;6.094;2023-02-18T13:41:25;10.30;;;5.22;;
11685;SDS011;5899;51.282;6.094;2023-02-18T13:43:51;10.55;;;5.07;;
11685;SDS011;5899;51.282;6.094;2023-02-18T13:46:20;10.97;;;4.67;;
11685;SDS011;5899;51.282;6.094;2023-02-18T13:48:51;7.40;;;4.63;;
11685;SDS011;5899;51.282;6.094;2023-02-18T13:51:27;10.95;;;5.60;;
11685;SDS011;5899;51.282;6.094;2023-02-18T13:54:00;6.95;;;5.53;;
11685;SDS011;5899;51.282;6.094;2023-02-18T13:56:28;8.15;;;4.90;;
11685;SDS011;5899;51.282;6.094;2023-02-18T13:59:00;9.43;;;4.55;;
11685;SDS011;5899;51.282;6.094;2023-02-18T14:07:22;8.50;;;4.90;;
11685;SDS011;5899;51.282;6.094;2023-02-18T14:09:54;9.43;;;5.50;;
11685;SDS011;5899;51.282;6.094;2023-02-18T14:12:25;7.43;;;4.88;;
11685;SDS011;5899;51.282;6.094;2023-02-18T14:14:54;9.73;;;5.20;;
11685;SDS011;5899;51.282;6.094;2023-02-18T14:17:31;7.00;;;4.45;;
11685;SDS011;5899;51.282;6.094;2023-02-18T14:22:51;5.85;;;4.50;;
11685;SDS011;5899;51.282;6.094;2023-02-18T14:25:30;6.25;;;4.32;;
11685;SDS011;5899;51.282;6.094;2023-02-18T14:28:02;6.38;;;4.55;;
11685;SDS011;5899;51.282;6.094;2023-02-18T14:30:30;6.40;;;4.60;;
11685;SDS011;5899;51.282;6.094;2023-02-18T14:33:03;9.45;;;5.70;;
11685;SDS011;5899;51.282;6.094;2023-02-18T14:35:35;9.27;;;5.47;;
11685;SDS011;5899;51.282;6.094;2023-02-18T14:41:00;8.67;;;5.50;;
11685;SDS011;5899;51.282;6.094;2023-02-18T14:43:32;6.60;;;5.43;;
11685;SDS011;5899;51.282;6.094;2023-02-18T14:46:07;9.73;;;6.15;;
11685;SDS011;5899;51.282;6.094;2023-02-18T14:48:39;9.30;;;6.00;;
11685;SDS011;5899;51.282;6.094;2023-02-18T14:51:08;10.38;;;5.38;;
11685;SDS011;5899;51.282;6.094;2023-02-18T14:53:39;8.82;;;6.43;;
11685;SDS011;5899;51.282;6.094;2023-02-18T14:56:09;7.63;;;5.73;;
11685;SDS011;5899;51.282;6.094;2023-02-18T14:58:40;7.32;;;5.53;;
11685;SDS011;5899;51.282;6.094;2023-02-18T15:01:12;8.60;;;4.87;;
11685;SDS011;5899;51.282;6.094;2023-02-18T15:03:46;9.18;;;5.15;;
11685;SDS011;5899;51.282;6.094;2023-02-18T15:06:23;8.43;;;5.63;;
11685;SDS011;5899;51.282;6.094;2023-02-18T15:08:49;8.53;;;6.27;;
11685;SDS011;5899;51.282;6.094;2023-02-18T15:11:18;11.05;;;6.05;;
11685;SDS011;5899;51.282;6.094;2023-02-18T15:13:46;9.38;;;5.53;;
11685;SDS011;5899;51.282;6.094;2023-02-18T15:16:15;9.82;;;6.15;;
11685;SDS011;5899;51.282;6.094;2023-02-18T15:18:44;8.10;;;5.50;;
11685;SDS011;5899;51.282;6.094;2023-02-18T15:21:15;7.38;;;5.43;;
11685;SDS011;5899;51.282;6.094;2023-02-18T15:23:43;8.52;;;5.28;;
11685;SDS011;5899;51.282;6.094;2023-02-18T15:26:17;8.38;;;5.10;;
11685;SDS011;5899;51.282;6.094;2023-02-18T15:28:52;6.88;;;4.65;;
11685;SDS011;5899;51.282;6.094;2023-02-18T15:31:23;7.38;;;4.50;;
11685;SDS011;5899;51.282;6.094;2023-02-18T15:33:50;8.60;;;5.07;;
11685;SDS011;5899;51.282;6.094;2023-02-18T15:36:20;7.32;;;4.88;;
11685;SDS011;5899;51.282;6.094;2023-02-18T15:38:46;8.98;;;5.25;;
11685;SDS011;5899;51.282;6.094;2023-02-18T15:41:14;8.68;;;5.05;;
11685;SDS011;5899;51.282;6.094;2023-02-18T15:43:52;7.80;;;4.50;;
11685;SDS011;5899;51.282;6.094;2023-02-18T15:46:20;6.68;;;4.78;;
11685;SDS011;5899;51.282;6.094;2023-02-18T15:48:48;7.53;;;4.82;;
11685;SDS011;5899;51.282;6.094;2023-02-18T15:51:21;8.02;;;4.93;;
11685;SDS011;5899;51.282;6.094;2023-02-18T15:53:51;7.38;;;5.03;;
11685;SDS011;5899;51.282;6.094;2023-02-18T15:56:20;7.20;;;4.90;;